sensor_id;sensor_type;location;lat;lon;timestamp;pressure;altitude;pressure_sealevel;temperature;humidity
10716;BME280;5409;42.620;23.316;2022-10-29T00:00:59;93347.88;;;9.18;100.00
10716;BME280;5409;42.620;23.316;2022-10-29T00:03:26;93342.09;;;9.13;100.00
10716;BME280;5409;42.620;23.316;2022-10-29T00:05:57;93342.94;;;9.06;100.00
10716;BME280;5409;42.620;23.316;2022-10-29T00:08:25;93337.13;;;9.04;100.00
10716;BME280;5409;42.620;23.316;2022-10-29T00:10:53;93342.94;;;9.06;100.00
10716;BME280;5409;42.620;23.316;2022-10-29T00:13:20;93339.41;;;9.09;100.00
10716;BME280;5409;42.620;23.316;2022-10-29T00:15:46;93332.94;;;9.00;100.00
10716;BME280;5409;42.620;23.316;2022-10-29T00:18:13;93341.78;;;9.07;100.00
10716;BME280;5409;42.620;23.316;2022-10-29T00:20:40;93337.94;;;9.05;100.00
10716;BME280;5409;42.620;23.316;2022-10-29T00:23:06;93340.59;;;9.08;100.00
10716;BME280;5409;42.620;23.316;2022-10-29T00:25:33;93336.66;;;9.13;100.00
10716;BME280;5409;42.620;23.316;2022-10-29T00:28:01;93328.84;;;9.15;100.00
10716;BME280;5409;42.620;23.316;2022-10-29T00:30:28;93323.03;;;9.16;100.00
10716;BME280;5409;42.620;23.316;2022-10-29T00:32:54;93321.78;;;9.24;100.00
10716;BME280;5409;42.620;23.316;2022-10-29T00:35:21;93314.69;;;9.30;100.00
10716;BME280;5409;42.620;23.316;2022-10-29T00:37:48;93315.78;;;9.36;100.00
10716;BME280;5409;42.620;23.316;2022-10-29T00:40:15;93305.81;;;9.26;100.00
10716;BME280;5409;42.620;23.316;2022-10-29T00:42:41;93301.44;;;9.36;100.00
10716;BME280;5409;42.620;23.316;2022-10-29T00:45:18;93304.81;;;9.43;100.00
10716;BME280;5409;42.620;23.316;2022-10-29T00:47:48;93282.03;;;9.30;100.00
10716;BME280;5409;42.620;23.316;2022-10-29T00:50:18;93307.50;;;9.47;100.00
10716;BME280;5409;42.620;23.316;2022-10-29T00:52:48;93302.03;;;9.47;100.00
10716;BME280;5409;42.620;23.316;2022-10-29T00:55:16;93304.78;;;9.47;100.00
10716;BME280;5409;42.620;23.316;2022-10-29T00:57:48;93304.00;;;9.46;100.00
10716;BME280;5409;42.620;23.316;2022-10-29T01:00:18;93300.38;;;9.26;100.00
10716;BME280;5409;42.620;23.316;2022-10-29T01:02:45;93312.38;;;9.29;100.00
10716;BME280;5409;42.620;23.316;2022-10-29T01:05:15;93315.09;;;9.29;100.00
10716;BME280;5409;42.620;23.316;2022-10-29T01:07:47;93296.69;;;9.10;100.00
10716;BME280;5409;42.620;23.316;2022-10-29T01:10:14;93305.47;;;9.21;100.00
10716;BME280;5409;42.620;23.316;2022-10-29T01:12:56;93312.16;;;9.16;100.00
10716;BME280;5409;42.620;23.316;2022-10-29T01:15:35;93299.00;;;9.11;100.00
10716;BME280;5409;42.620;23.316;2022-10-29T01:18:12;93294.00;;;9.06;100.00
10716;BME280;5409;42.620;23.316;2022-10-29T01:21:02;93285.81;;;9.10;100.00
10716;BME280;5409;42.620;23.316;2022-10-29T01:24:15;93283.91;;;9.03;100.00
10716;BME280;5409;42.620;23.316;2022-10-29T01:29:56;93269.50;;;9.10;100.00
10716;BME280;5409;42.620;23.316;2022-10-29T01:32:30;93272.00;;;8.94;100.00
10716;BME280;5409;42.620;23.316;2022-10-29T01:35:05;93263.41;;;8.96;100.00
10716;BME280;5409;42.620;23.316;2022-10-29T01:37:43;93269.31;;;8.91;100.00
10716;BME280;5409;42.620;23.316;2022-10-29T01:40:22;93279.84;;;8.89;100.00
10716;BME280;5409;42.620;23.316;2022-10-29T01:42:52;93267.72;;;8.93;100.00
10716;BME280;5409;42.620;23.316;2022-10-29T01:45:25;93278.91;;;8.99;100.00
10716;BME280;5409;42.620;23.316;2022-10-29T01:47:59;93270.81;;;8.95;100.00
10716;BME280;5409;42.620;23.316;2022-10-29T01:50:27;93278.56;;;8.97;100.00
10716;BME280;5409;42.620;23.316;2022-10-29T01:52:54;93273.16;;;8.93;100.00
10716;BME280;5409;42.620;23.316;2022-10-29T01:55:27;93267.81;;;8.86;100.00
10716;BME280;5409;42.620;23.316;2022-10-29T01:57:55;93252.66;;;8.89;100.00
10716;BME280;5409;42.620;23.316;2022-10-29T02:00:21;93272.69;;;9.02;100.00
10716;BME280;5409;42.620;23.316;2022-10-29T02:03:08;93270.69;;;9.05;100.00
10716;BME280;5409;42.620;23.316;2022-10-29T02:05:47;93264.19;;;8.96;100.00
10716;BME280;5409;42.620;23.316;2022-10-29T02:08:28;93262.25;;;8.97;100.00
10716;BME280;5409;42.620;23.316;2022-10-29T02:11:01;93262.28;;;8.93;100.00
10716;BME280;5409;42.620;23.316;2022-10-29T02:13:30;93256.97;;;8.83;100.00
10716;BME280;5409;42.620;23.316;2022-10-29T02:15:59;93265.19;;;8.76;100.00
10716;BME280;5409;42.620;23.316;2022-10-29T02:18:29;93267.13;;;8.79;100.00
10716;BME280;5409;42.620;23.316;2022-10-29T02:20:56;93265.88;;;8.83;100.00
10716;BME280;5409;42.620;23.316;2022-10-29T02:23:22;93257.66;;;8.90;100.00
10716;BME280;5409;42.620;23.316;2022-10-29T02:25:49;93263.47;;;8.92;100.00
10716;BME280;5409;42.620;23.316;2022-10-29T02:28:16;93242.22;;;8.84;100.00
10716;BME280;5409;42.620;23.316;2022-10-29T02:30:42;93246.06;;;8.86;100.00
10716;BME280;5409;42.620;23.316;2022-10-29T02:33:09;93239.94;;;8.75;100.00
10716;BME280;5409;42.620;23.316;2022-10-29T02:35:37;93232.66;;;8.69;100.00
10716;BME280;5409;42.620;23.316;2022-10-29T02:38:04;93233.13;;;8.60;100.00
10716;BME280;5409;42.620;23.316;2022-10-29T02:40:31;93238.16;;;8.62;100.00
10716;BME280;5409;42.620;23.316;2022-10-29T02:42:57;93238.22;;;8.58;100.00
10716;BME280;5409;42.620;23.316;2022-10-29T02:45:24;93241.69;;;8.59;100.00
10716;BME280;5409;42.620;23.316;2022-10-29T02:47:51;93246.34;;;8.58;100.00
10716;BME280;5409;42.620;23.316;2022-10-29T02:50:17;93242.16;;;8.54;100.00
10716;BME280;5409;42.620;23.316;2022-10-29T02:52:45;93223.19;;;8.47;100.00
10716;BME280;5409;42.620;23.316;2022-10-29T02:55:12;93241.25;;;8.64;100.00
10716;BME280;5409;42.620;23.316;2022-10-29T02:57:41;93240.88;;;8.62;100.00
10716;BME280;5409;42.620;23.316;2022-10-29T03:00:09;93242.47;;;8.59;100.00
10716;BME280;5409;42.620;23.316;2022-10-29T03:02:36;93238.28;;;8.51;100.00
10716;BME280;5409;42.620;23.316;2022-10-29T03:05:04;93244.13;;;8.46;100.00
10716;BME280;5409;42.620;23.316;2022-10-29T03:07:34;93235.66;;;8.41;100.00
10716;BME280;5409;42.620;23.316;2022-10-29T03:10:02;93241.16;;;8.37;100.00
10716;BME280;5409;42.620;23.316;2022-10-29T03:12:30;93237.69;;;8.33;100.00
10716;BME280;5409;42.620;23.316;2022-10-29T03:14:56;93243.06;;;8.37;100.00
10716;BME280;5409;42.620;23.316;2022-10-29T03:17:23;93238.34;;;8.44;100.00
10716;BME280;5409;42.620;23.316;2022-10-29T03:19:50;93232.22;;;8.37;100.00
10716;BME280;5409;42.620;23.316;2022-10-29T03:22:17;93225.53;;;8.45;100.00
10716;BME280;5409;42.620;23.316;2022-10-29T03:24:43;93225.13;;;8.46;100.00
10716;BME280;5409;42.620;23.316;2022-10-29T03:27:11;93230.13;;;8.51;100.00
10716;BME280;5409;42.620;23.316;2022-10-29T03:29:38;93222.38;;;8.50;100.00
10716;BME280;5409;42.620;23.316;2022-10-29T03:32:05;93223.94;;;8.51;100.00
10716;BME280;5409;42.620;23.316;2022-10-29T03:34:31;93219.13;;;8.62;100.00
10716;BME280;5409;42.620;23.316;2022-10-29T03:36:58;93226.34;;;8.75;100.00
10716;BME280;5409;42.620;23.316;2022-10-29T03:39:25;93216.19;;;8.83;100.00
10716;BME280;5409;42.620;23.316;2022-10-29T03:41:51;93216.94;;;8.87;100.00
10716;BME280;5409;42.620;23.316;2022-10-29T03:44:19;93223.50;;;8.89;100.00
10716;BME280;5409;42.620;23.316;2022-10-29T03:46:46;93219.53;;;8.94;100.00
10716;BME280;5409;42.620;23.316;2022-10-29T03:49:13;93215.25;;;8.96;100.00
10716;BME280;5409;42.620;23.316;2022-10-29T03:51:40;93207.50;;;8.95;100.00
10716;BME280;5409;42.620;23.316;2022-10-29T03:54:06;93216.50;;;8.88;100.00
10716;BME280;5409;42.620;23.316;2022-10-29T03:56:33;93211.84;;;8.89;100.00
10716;BME280;5409;42.620;23.316;2022-10-29T03:59:00;93212.63;;;8.89;100.00
10716;BME280;5409;42.620;23.316;2022-10-29T04:01:28;93211.06;;;8.88;100.00
10716;BME280;5409;42.620;23.316;2022-10-29T04:03:54;93219.53;;;8.94;100.00
10716;BME280;5409;42.620;23.316;2022-10-29T04:06:21;93212.63;;;8.89;100.00
10716;BME280;5409;42.620;23.316;2022-10-29T04:08:48;93212.75;;;8.79;100.00
10716;BME280;5409;42.620;23.316;2022-10-29T04:11:14;93217.88;;;8.70;100.00
10716;BME280;5409;42.620;23.316;2022-10-29T04:13:41;93208.69;;;8.57;100.00
10716;BME280;5409;42.620;23.316;2022-10-29T04:16:08;93221.16;;;8.54;100.00
10716;BME280;5409;42.620;23.316;2022-10-29T04:18:36;93217.38;;;8.45;100.00
10716;BME280;5409;42.620;23.316;2022-10-29T04:21:03;93235.19;;;8.49;100.00
10716;BME280;5409;42.620;23.316;2022-10-29T04:23:29;93228.66;;;8.43;100.00
10716;BME280;5409;42.620;23.316;2022-10-29T04:25:57;93232.16;;;8.40;100.00
10716;BME280;5409;42.620;23.316;2022-10-29T04:28:24;93224.84;;;8.37;100.00
10716;BME280;5409;42.620;23.316;2022-10-29T04:30:51;93224.84;;;8.37;100.00
10716;BME280;5409;42.620;23.316;2022-10-29T04:33:18;93239.25;;;8.31;100.00
10716;BME280;5409;42.620;23.316;2022-10-29T04:35:51;93236.91;;;8.33;100.00
10716;BME280;5409;42.620;23.316;2022-10-29T04:38:18;93236.63;;;8.20;100.00
10716;BME280;5409;42.620;23.316;2022-10-29T04:40:45;93234.34;;;8.12;100.00
10716;BME280;5409;42.620;23.316;2022-10-29T04:43:12;93232.88;;;8.04;100.00
10716;BME280;5409;42.620;23.316;2022-10-29T04:45:39;93229.78;;;8.02;100.00
10716;BME280;5409;42.620;23.316;2022-10-29T04:48:05;93228.28;;;7.97;100.00
10716;BME280;5409;42.620;23.316;2022-10-29T04:50:35;93222.09;;;7.93;100.00
10716;BME280;5409;42.620;23.316;2022-10-29T04:53:05;93226.78;;;7.89;100.00
10716;BME280;5409;42.620;23.316;2022-10-29T04:55:35;93222.91;;;7.90;100.00
10716;BME280;5409;42.620;23.316;2022-10-29T04:58:03;93176.25;;;7.55;100.00
10716;BME280;5409;42.620;23.316;2022-10-29T05:00:29;93222.19;;;7.80;100.00
10716;BME280;5409;42.620;23.316;2022-10-29T05:02:56;93235.69;;;7.90;100.00
10716;BME280;5409;42.620;23.316;2022-10-29T05:05:24;93233.41;;;7.85;100.00
10716;BME280;5409;42.620;23.316;2022-10-29T05:07:55;93229.59;;;7.79;100.00
10716;BME280;5409;42.620;23.316;2022-10-29T05:10:25;93225.31;;;7.78;100.00
10716;BME280;5409;42.620;23.316;2022-10-29T05:12:56;93226.88;;;7.79;100.00
10716;BME280;5409;42.620;23.316;2022-10-29T05:15:23;93229.13;;;7.84;100.00
10716;BME280;5409;42.620;23.316;2022-10-29T05:17:50;93210.97;;;7.78;100.00
10716;BME280;5409;42.620;23.316;2022-10-29T05:20:16;93208.59;;;7.83;100.00
10716;BME280;5409;42.620;23.316;2022-10-29T05:22:43;93234.84;;;8.00;100.00
10716;BME280;5409;42.620;23.316;2022-10-29T05:25:10;93228.59;;;8.03;100.00
10716;BME280;5409;42.620;23.316;2022-10-29T05:27:38;93226.22;;;8.12;100.00
10716;BME280;5409;42.620;23.316;2022-10-29T05:30:06;93242.75;;;8.28;100.00
10716;BME280;5409;42.620;23.316;2022-10-29T05:32:33;93238.06;;;8.32;100.00
10716;BME280;5409;42.620;23.316;2022-10-29T05:34:59;93241.94;;;8.34;100.00
10716;BME280;5409;42.620;23.316;2022-10-29T05:37:26;93251.63;;;8.35;100.00
10716;BME280;5409;42.620;23.316;2022-10-29T05:39:53;93245.41;;;8.35;100.00
10716;BME280;5409;42.620;23.316;2022-10-29T05:42:20;93249.69;;;8.36;100.00
10716;BME280;5409;42.620;23.316;2022-10-29T05:44:48;93246.59;;;8.34;100.00
10716;BME280;5409;42.620;23.316;2022-10-29T05:47:14;93252.00;;;8.37;100.00
10716;BME280;5409;42.620;23.316;2022-10-29T05:49:41;93246.59;;;8.37;100.00
10716;BME280;5409;42.620;23.316;2022-10-29T05:52:08;93243.41;;;8.42;100.00
10716;BME280;5409;42.620;23.316;2022-10-29T05:54:34;93255.38;;;8.52;100.00
10716;BME280;5409;42.620;23.316;2022-10-29T05:57:01;93259.88;;;8.65;100.00
10716;BME280;5409;42.620;23.316;2022-10-29T05:59:28;93257.84;;;8.73;100.00
10716;BME280;5409;42.620;23.316;2022-10-29T06:01:56;93257.00;;;8.79;100.00
10716;BME280;5409;42.620;23.316;2022-10-29T06:04:22;93252.66;;;8.85;100.00
10716;BME280;5409;42.620;23.316;2022-10-29T06:06:49;93257.28;;;8.92;100.00
10716;BME280;5409;42.620;23.316;2022-10-29T06:09:16;93260.31;;;8.94;100.00
10716;BME280;5409;42.620;23.316;2022-10-29T06:11:42;93264.56;;;8.98;100.00
10716;BME280;5409;42.620;23.316;2022-10-29T06:14:09;93252.28;;;8.87;100.00
10716;BME280;5409;42.620;23.316;2022-10-29T06:16:36;93263.72;;;9.04;100.00
10716;BME280;5409;42.620;23.316;2022-10-29T06:19:04;93264.06;;;9.06;100.00
10716;BME280;5409;42.620;23.316;2022-10-29T06:21:30;93275.38;;;9.05;100.00
10716;BME280;5409;42.620;23.316;2022-10-29T06:24:00;93281.50;;;9.12;100.00
10716;BME280;5409;42.620;23.316;2022-10-29T06:26:27;93277.19;;;9.15;100.00
10716;BME280;5409;42.620;23.316;2022-10-29T06:28:54;93270.47;;;9.23;100.00
10716;BME280;5409;42.620;23.316;2022-10-29T06:31:20;93270.81;;;9.28;100.00
10716;BME280;5409;42.620;23.316;2022-10-29T06:33:47;93266.34;;;9.71;100.00
10716;BME280;5409;42.620;23.316;2022-10-29T06:36:15;93269.81;;;10.02;100.00
10716;BME280;5409;42.620;23.316;2022-10-29T06:38:42;93259.38;;;10.23;100.00
10716;BME280;5409;42.620;23.316;2022-10-29T06:41:08;93268.56;;;10.55;100.00
10716;BME280;5409;42.620;23.316;2022-10-29T06:43:35;93261.31;;;10.68;100.00
10716;BME280;5409;42.620;23.316;2022-10-29T06:46:02;93262.09;;;10.69;100.00
10716;BME280;5409;42.620;23.316;2022-10-29T06:48:29;93259.84;;;10.64;100.00
10716;BME280;5409;42.620;23.316;2022-10-29T06:50:57;93263.75;;;10.63;100.00
10716;BME280;5409;42.620;23.316;2022-10-29T06:53:25;93259.06;;;10.63;100.00
10716;BME280;5409;42.620;23.316;2022-10-29T06:55:52;93265.28;;;10.64;100.00
10716;BME280;5409;42.620;23.316;2022-10-29T06:58:20;93254.88;;;10.59;100.00
10716;BME280;5409;42.620;23.316;2022-10-29T07:00:47;93270.31;;;10.65;100.00
10716;BME280;5409;42.620;23.316;2022-10-29T07:03:14;93266.34;;;10.70;100.00
10716;BME280;5409;42.620;23.316;2022-10-29T07:05:41;93266.72;;;10.72;100.00
10716;BME280;5409;42.620;23.316;2022-10-29T07:08:08;93268.66;;;10.71;100.00
10716;BME280;5409;42.620;23.316;2022-10-29T07:10:37;93275.66;;;10.72;100.00
10716;BME280;5409;42.620;23.316;2022-10-29T07:13:04;93274.53;;;10.70;100.00
10716;BME280;5409;42.620;23.316;2022-10-29T07:15:31;93283.56;;;10.67;100.00
10716;BME280;5409;42.620;23.316;2022-10-29T07:17:59;93287.94;;;10.61;100.00
10716;BME280;5409;42.620;23.316;2022-10-29T07:20:27;93286.41;;;10.60;100.00
10716;BME280;5409;42.620;23.316;2022-10-29T07:22:55;93281.78;;;10.57;100.00
10716;BME280;5409;42.620;23.316;2022-10-29T07:25:23;93290.59;;;10.64;100.00
10716;BME280;5409;42.620;23.316;2022-10-29T07:27:51;93287.03;;;10.67;100.00
10716;BME280;5409;42.620;23.316;2022-10-29T07:30:18;93269.44;;;10.49;100.00
10716;BME280;5409;42.620;23.316;2022-10-29T07:32:45;93300.00;;;10.83;100.00
10716;BME280;5409;42.620;23.316;2022-10-29T07:35:12;93292.53;;;10.87;100.00
10716;BME280;5409;42.620;23.316;2022-10-29T07:37:39;93292.06;;;10.92;100.00
10716;BME280;5409;42.620;23.316;2022-10-29T07:40:07;93286.13;;;10.97;100.00
10716;BME280;5409;42.620;23.316;2022-10-29T07:42:33;93288.72;;;11.04;100.00
10716;BME280;5409;42.620;23.316;2022-10-29T07:45:02;93285.53;;;11.09;100.00
10716;BME280;5409;42.620;23.316;2022-10-29T07:47:29;93299.00;;;11.16;100.00
10716;BME280;5409;42.620;23.316;2022-10-29T07:49:55;93294.69;;;11.18;100.00
10716;BME280;5409;42.620;23.316;2022-10-29T07:52:22;93294.56;;;11.25;100.00
10716;BME280;5409;42.620;23.316;2022-10-29T07:54:49;93283.44;;;11.35;100.00
10716;BME280;5409;42.620;23.316;2022-10-29T07:57:15;93282.50;;;11.42;100.00
10716;BME280;5409;42.620;23.316;2022-10-29T07:59:42;93287.47;;;11.47;100.00
10716;BME280;5409;42.620;23.316;2022-10-29T08:02:10;93281.53;;;11.52;100.00
10716;BME280;5409;42.620;23.316;2022-10-29T08:04:37;93284.84;;;11.63;100.00
10716;BME280;5409;42.620;23.316;2022-10-29T08:07:03;93288.53;;;11.72;100.00
10716;BME280;5409;42.620;23.316;2022-10-29T08:09:30;93291.13;;;11.79;100.00
10716;BME280;5409;42.620;23.316;2022-10-29T08:11:57;93267.44;;;11.73;100.00
10716;BME280;5409;42.620;23.316;2022-10-29T08:14:23;93292.44;;;11.91;100.00
10716;BME280;5409;42.620;23.316;2022-10-29T08:16:52;93292.34;;;11.94;100.00
10716;BME280;5409;42.620;23.316;2022-10-29T08:19:20;93286.63;;;12.05;100.00
10716;BME280;5409;42.620;23.316;2022-10-29T08:21:47;93294.28;;;12.13;100.00
10716;BME280;5409;42.620;23.316;2022-10-29T08:24:14;93280.00;;;12.22;100.00
10716;BME280;5409;42.620;23.316;2022-10-29T08:26:41;93285.56;;;12.34;100.00
10716;BME280;5409;42.620;23.316;2022-10-29T08:29:08;93269.94;;;12.50;100.00
10716;BME280;5409;42.620;23.316;2022-10-29T08:31:34;93274.91;;;12.55;100.00
10716;BME280;5409;42.620;23.316;2022-10-29T08:34:01;93275.13;;;12.77;100.00
10716;BME280;5409;42.620;23.316;2022-10-29T08:36:29;93276.50;;;12.85;100.00
10716;BME280;5409;42.620;23.316;2022-10-29T08:38:56;93274.63;;;12.98;100.00
10716;BME280;5409;42.620;23.316;2022-10-29T08:41:33;93276.13;;;13.15;100.00
10716;BME280;5409;42.620;23.316;2022-10-29T08:44:36;93284.72;;;13.29;100.00
10716;BME280;5409;42.620;23.316;2022-10-29T08:47:12;93289.56;;;13.38;100.00
10716;BME280;5409;42.620;23.316;2022-10-29T08:49:44;93283.50;;;13.46;100.00
10716;BME280;5409;42.620;23.316;2022-10-29T08:52:14;93285.59;;;13.55;100.00
10716;BME280;5409;42.620;23.316;2022-10-29T08:54:47;93287.47;;;13.58;100.00
10716;BME280;5409;42.620;23.316;2022-10-29T08:57:18;93279.38;;;13.66;100.00
10716;BME280;5409;42.620;23.316;2022-10-29T08:59:57;93272.81;;;13.76;98.54
10716;BME280;5409;42.620;23.316;2022-10-29T09:02:26;93275.34;;;13.83;100.00
10716;BME280;5409;42.620;23.316;2022-10-29T09:04:55;93265.59;;;13.95;100.00
10716;BME280;5409;42.620;23.316;2022-10-29T09:07:36;93265.53;;;14.11;99.59
10716;BME280;5409;42.620;23.316;2022-10-29T09:10:13;93265.97;;;14.22;96.84
10716;BME280;5409;42.620;23.316;2022-10-29T09:12:59;93272.56;;;14.37;95.10
10716;BME280;5409;42.620;23.316;2022-10-29T09:15:53;93270.28;;;14.48;98.30
10716;BME280;5409;42.620;23.316;2022-10-29T09:21:30;93273.44;;;14.71;96.27
10716;BME280;5409;42.620;23.316;2022-10-29T09:24:03;93274.50;;;14.74;94.14
10716;BME280;5409;42.620;23.316;2022-10-29T09:26:42;93273.75;;;14.85;93.92
10716;BME280;5409;42.620;23.316;2022-10-29T09:29:26;93267.38;;;14.88;91.22
10716;BME280;5409;42.620;23.316;2022-10-29T09:31:58;93266.03;;;14.93;89.15
10716;BME280;5409;42.620;23.316;2022-10-29T09:34:30;93259.00;;;14.92;90.16
10716;BME280;5409;42.620;23.316;2022-10-29T09:36:57;93267.53;;;15.06;89.86
10716;BME280;5409;42.620;23.316;2022-10-29T09:39:28;93259.78;;;15.14;90.38
10716;BME280;5409;42.620;23.316;2022-10-29T09:41:58;93249.47;;;15.18;90.79
10716;BME280;5409;42.620;23.316;2022-10-29T09:44:32;93246.69;;;15.30;88.86
10716;BME280;5409;42.620;23.316;2022-10-29T09:47:07;93257.66;;;15.43;89.27
10716;BME280;5409;42.620;23.316;2022-10-29T09:49:48;93255.28;;;15.54;86.50
10716;BME280;5409;42.620;23.316;2022-10-29T09:52:21;93249.69;;;15.66;87.10
10716;BME280;5409;42.620;23.316;2022-10-29T09:54:51;93248.13;;;15.78;88.04
10716;BME280;5409;42.620;23.316;2022-10-29T09:57:21;93239.91;;;15.87;89.34
10716;BME280;5409;42.620;23.316;2022-10-29T09:59:52;93236.00;;;15.97;84.54
10716;BME280;5409;42.620;23.316;2022-10-29T10:02:27;93243.19;;;16.03;81.70
10716;BME280;5409;42.620;23.316;2022-10-29T10:05:01;93238.84;;;16.14;82.70
10716;BME280;5409;42.620;23.316;2022-10-29T10:07:29;93231.41;;;16.24;81.91
10716;BME280;5409;42.620;23.316;2022-10-29T10:09:58;93226.06;;;16.29;80.20
10716;BME280;5409;42.620;23.316;2022-10-29T10:12:26;93230.72;;;16.41;76.61
10716;BME280;5409;42.620;23.316;2022-10-29T10:15:05;93221.50;;;16.66;77.22
10716;BME280;5409;42.620;23.316;2022-10-29T10:17:56;93221.75;;;17.43;71.01
10716;BME280;5409;42.620;23.316;2022-10-29T10:20:29;93215.88;;;19.48;62.29
10716;BME280;5409;42.620;23.316;2022-10-29T10:22:56;93204.31;;;20.79;55.73
10716;BME280;5409;42.620;23.316;2022-10-29T10:25:36;93198.91;;;21.84;48.33
10716;BME280;5409;42.620;23.316;2022-10-29T10:28:12;93197.97;;;22.74;43.31
10716;BME280;5409;42.620;23.316;2022-10-29T10:30:40;93198.59;;;22.58;43.42
10716;BME280;5409;42.620;23.316;2022-10-29T10:33:21;93176.28;;;22.78;44.29
10716;BME280;5409;42.620;23.316;2022-10-29T10:35:48;93186.00;;;23.35;41.30
10716;BME280;5409;42.620;23.316;2022-10-29T10:38:15;93186.00;;;24.16;40.57
10716;BME280;5409;42.620;23.316;2022-10-29T10:40:53;93182.75;;;25.05;37.69
10716;BME280;5409;42.620;23.316;2022-10-29T10:43:21;93175.03;;;25.54;36.25
10716;BME280;5409;42.620;23.316;2022-10-29T10:45:54;93170.75;;;25.43;36.10
10716;BME280;5409;42.620;23.316;2022-10-29T10:48:22;93163.94;;;25.95;36.16
10716;BME280;5409;42.620;23.316;2022-10-29T10:50:51;93175.22;;;26.24;34.50
10716;BME280;5409;42.620;23.316;2022-10-29T10:53:34;93171.38;;;25.76;33.71
10716;BME280;5409;42.620;23.316;2022-10-29T10:56:03;93161.63;;;26.45;34.67
10716;BME280;5409;42.620;23.316;2022-10-29T10:58:34;93170.16;;;26.17;32.72
10716;BME280;5409;42.620;23.316;2022-10-29T11:01:05;93159.72;;;25.83;32.86
10716;BME280;5409;42.620;23.316;2022-10-29T11:03:38;93158.25;;;25.60;33.33
10716;BME280;5409;42.620;23.316;2022-10-29T11:06:12;93155.28;;;25.98;34.08
10716;BME280;5409;42.620;23.316;2022-10-29T11:08:44;93143.31;;;26.44;32.14
10716;BME280;5409;42.620;23.316;2022-10-29T11:11:16;93154.06;;;26.69;32.00
10716;BME280;5409;42.620;23.316;2022-10-29T11:13:46;93149.34;;;26.53;31.13
10716;BME280;5409;42.620;23.316;2022-10-29T11:16:18;93144.88;;;25.42;32.33
10716;BME280;5409;42.620;23.316;2022-10-29T11:18:51;93130.00;;;24.96;33.72
10716;BME280;5409;42.620;23.316;2022-10-29T11:21:23;93137.16;;;25.59;33.98
10716;BME280;5409;42.620;23.316;2022-10-29T11:23:54;93130.41;;;25.95;32.27
10716;BME280;5409;42.620;23.316;2022-10-29T11:26:29;93128.22;;;26.17;31.42
10716;BME280;5409;42.620;23.316;2022-10-29T11:29:03;93127.78;;;26.08;31.44
10716;BME280;5409;42.620;23.316;2022-10-29T11:31:43;93128.03;;;26.10;31.28
10716;BME280;5409;42.620;23.316;2022-10-29T11:34:16;93118.63;;;27.01;31.07
10716;BME280;5409;42.620;23.316;2022-10-29T11:36:49;93110.59;;;27.16;29.54
10716;BME280;5409;42.620;23.316;2022-10-29T11:39:20;93106.97;;;26.73;30.28
10716;BME280;5409;42.620;23.316;2022-10-29T11:41:55;93111.84;;;26.67;30.51
10716;BME280;5409;42.620;23.316;2022-10-29T11:44:23;93106.19;;;26.96;31.59
10716;BME280;5409;42.620;23.316;2022-10-29T11:47:00;93110.31;;;26.66;31.18
10716;BME280;5409;42.620;23.316;2022-10-29T11:49:45;93107.41;;;26.77;31.12
10716;BME280;5409;42.620;23.316;2022-10-29T11:52:23;93099.59;;;26.41;29.90
10716;BME280;5409;42.620;23.316;2022-10-29T11:55:00;93101.28;;;25.74;33.47
10716;BME280;5409;42.620;23.316;2022-10-29T11:57:36;93098.72;;;26.22;31.37
10716;BME280;5409;42.620;23.316;2022-10-29T12:00:11;93101.56;;;25.70;31.41
10716;BME280;5409;42.620;23.316;2022-10-29T12:02:52;93103.25;;;25.90;30.83
10716;BME280;5409;42.620;23.316;2022-10-29T12:05:25;93097.28;;;26.45;32.14
10716;BME280;5409;42.620;23.316;2022-10-29T12:08:04;93091.16;;;26.75;33.58
10716;BME280;5409;42.620;23.316;2022-10-29T12:10:41;93085.06;;;27.25;32.46
10716;BME280;5409;42.620;23.316;2022-10-29T12:13:29;93080.22;;;27.25;31.12
10716;BME280;5409;42.620;23.316;2022-10-29T12:16:09;93073.69;;;27.17;31.36
10716;BME280;5409;42.620;23.316;2022-10-29T12:18:43;93075.75;;;26.64;33.77
10716;BME280;5409;42.620;23.316;2022-10-29T12:21:19;93071.25;;;25.45;34.88
10716;BME280;5409;42.620;23.316;2022-10-29T12:23:56;93062.84;;;23.57;38.64
10716;BME280;5409;42.620;23.316;2022-10-29T12:26:34;93067.22;;;21.90;44.17
10716;BME280;5409;42.620;23.316;2022-10-29T12:29:11;93057.63;;;20.75;47.31
10716;BME280;5409;42.620;23.316;2022-10-29T12:31:42;93064.13;;;20.33;49.84
10716;BME280;5409;42.620;23.316;2022-10-29T12:34:17;93047.06;;;19.28;57.73
10716;BME280;5409;42.620;23.316;2022-10-29T12:36:53;93053.53;;;18.49;61.67
10716;BME280;5409;42.620;23.316;2022-10-29T12:39:28;93055.56;;;18.16;61.46
10716;BME280;5409;42.620;23.316;2022-10-29T12:41:59;93058.97;;;17.79;64.80
10716;BME280;5409;42.620;23.316;2022-10-29T12:44:35;93054.19;;;17.47;66.85
10716;BME280;5409;42.620;23.316;2022-10-29T12:47:08;93060.97;;;17.19;65.41
10716;BME280;5409;42.620;23.316;2022-10-29T12:49:48;93051.19;;;17.18;68.08
10716;BME280;5409;42.620;23.316;2022-10-29T12:52:21;93054.91;;;17.56;64.87
10716;BME280;5409;42.620;23.316;2022-10-29T12:54:51;93052.47;;;17.49;65.84
10716;BME280;5409;42.620;23.316;2022-10-29T12:57:27;93044.50;;;17.51;61.96
10716;BME280;5409;42.620;23.316;2022-10-29T13:03:00;93031.66;;;17.48;58.89
10716;BME280;5409;42.620;23.316;2022-10-29T13:05:36;93043.84;;;17.06;59.35
10716;BME280;5409;42.620;23.316;2022-10-29T13:08:33;93043.56;;;16.59;61.21
10716;BME280;5409;42.620;23.316;2022-10-29T13:11:00;93036.63;;;16.10;66.43
10716;BME280;5409;42.620;23.316;2022-10-29T13:13:52;93034.88;;;15.86;65.32
10716;BME280;5409;42.620;23.316;2022-10-29T13:16:28;93033.13;;;15.52;67.65
10716;BME280;5409;42.620;23.316;2022-10-29T13:19:15;93025.41;;;15.29;69.21
10716;BME280;5409;42.620;23.316;2022-10-29T13:21:57;93027.44;;;15.16;66.90
10716;BME280;5409;42.620;23.316;2022-10-29T13:24:26;93025.09;;;15.06;65.33